sensor_id;sensor_type;location;lat;lon;timestamp;P1;durP1;ratioP1;P2;durP2;ratioP2
61248;SDS011;47119;49.130;9.218;2022-07-24T00:02:24;1.05;;;1.05;;
61248;SDS011;47119;49.130;9.218;2022-07-24T00:05:01;1.38;;;1.27;;
61248;SDS011;47119;49.130;9.218;2022-07-24T00:07:30;1.88;;;1.63;;
61248;SDS011;47119;49.130;9.218;2022-07-24T00:10:02;1.23;;;1.23;;
61248;SDS011;47119;49.130;9.218;2022-07-24T00:12:31;1.05;;;1.02;;
61248;SDS011;47119;49.130;9.218;2022-07-24T00:15:01;1.30;;;1.30;;
61248;SDS011;47119;49.130;9.218;2022-07-24T00:17:37;1.05;;;1.05;;
61248;SDS011;47119;49.130;9.218;2022-07-24T00:20:07;1.02;;;1.02;;
61248;SDS011;47119;49.130;9.218;2022-07-24T00:22:35;1.70;;;1.55;;
61248;SDS011;47119;49.130;9.218;2022-07-24T00:25:09;1.75;;;1.65;;
61248;SDS011;47119;49.130;9.218;2022-07-24T00:27:43;1.30;;;1.30;;
61248;SDS011;47119;49.130;9.218;2022-07-24T00:30:10;4.50;;;1.70;;
61248;SDS011;47119;49.130;9.218;2022-07-24T00:32:43;1.65;;;1.55;;
61248;SDS011;47119;49.130;9.218;2022-07-24T00:35:10;1.70;;;1.60;;
61248;SDS011;47119;49.130;9.218;2022-07-24T00:37:38;0.88;;;0.88;;
61248;SDS011;47119;49.130;9.218;2022-07-24T00:40:06;1.40;;;1.15;;
61248;SDS011;47119;49.130;9.218;2022-07-24T00:42:36;2.53;;;2.03;;
61248;SDS011;47119;49.130;9.218;2022-07-24T00:45:03;1.52;;;1.52;;
61248;SDS011;47119;49.130;9.218;2022-07-24T00:47:31;1.38;;;1.38;;
61248;SDS011;47119;49.130;9.218;2022-07-24T00:49:58;1.63;;;1.52;;
61248;SDS011;47119;49.130;9.218;2022-07-24T00:52:25;1.85;;;1.73;;
61248;SDS011;47119;49.130;9.218;2022-07-24T00:54:53;1.30;;;1.30;;
61248;SDS011;47119;49.130;9.218;2022-07-24T00:57:24;1.40;;;1.30;;
61248;SDS011;47119;49.130;9.218;2022-07-24T00:59:54;1.38;;;1.38;;
61248;SDS011;47119;49.130;9.218;2022-07-24T01:02:22;1.63;;;1.52;;
61248;SDS011;47119;49.130;9.218;2022-07-24T01:04:49;1.42;;;1.42;;
61248;SDS011;47119;49.130;9.218;2022-07-24T01:07:16;1.55;;;1.42;;
61248;SDS011;47119;49.130;9.218;2022-07-24T01:09:44;1.83;;;1.55;;
61248;SDS011;47119;49.130;9.218;2022-07-24T01:12:13;1.25;;;1.25;;
61248;SDS011;47119;49.130;9.218;2022-07-24T01:14:42;1.15;;;1.05;;
61248;SDS011;47119;49.130;9.218;2022-07-24T01:17:09;1.15;;;1.15;;
61248;SDS011;47119;49.130;9.218;2022-07-24T01:19:36;1.83;;;1.75;;
61248;SDS011;47119;49.130;9.218;2022-07-24T01:22:07;1.92;;;1.80;;
61248;SDS011;47119;49.130;9.218;2022-07-24T01:24:37;1.88;;;1.30;;
61248;SDS011;47119;49.130;9.218;2022-07-24T01:27:04;1.27;;;1.27;;
61248;SDS011;47119;49.130;9.218;2022-07-24T01:29:34;1.83;;;1.73;;
61248;SDS011;47119;49.130;9.218;2022-07-24T01:32:01;1.60;;;1.50;;
61248;SDS011;47119;49.130;9.218;2022-07-24T01:34:29;1.80;;;1.70;;
61248;SDS011;47119;49.130;9.218;2022-07-24T01:36:56;1.23;;;1.23;;
61248;SDS011;47119;49.130;9.218;2022-07-24T01:39:27;1.30;;;1.23;;
61248;SDS011;47119;49.130;9.218;2022-07-24T01:41:54;1.00;;;1.00;;
61248;SDS011;47119;49.130;9.218;2022-07-24T01:44:21;1.13;;;1.08;;
61248;SDS011;47119;49.130;9.218;2022-07-24T01:46:48;1.33;;;1.33;;
61248;SDS011;47119;49.130;9.218;2022-07-24T01:49:15;1.73;;;1.63;;
61248;SDS011;47119;49.130;9.218;2022-07-24T01:51:45;1.15;;;1.15;;
61248;SDS011;47119;49.130;9.218;2022-07-24T01:54:12;2.08;;;1.20;;
61248;SDS011;47119;49.130;9.218;2022-07-24T01:56:41;1.23;;;1.13;;
61248;SDS011;47119;49.130;9.218;2022-07-24T01:59:13;1.63;;;1.52;;
61248;SDS011;47119;49.130;9.218;2022-07-24T02:01:40;1.70;;;1.60;;
61248;SDS011;47119;49.130;9.218;2022-07-24T02:04:16;1.88;;;1.77;;
61248;SDS011;47119;49.130;9.218;2022-07-24T02:06:44;1.23;;;1.23;;
61248;SDS011;47119;49.130;9.218;2022-07-24T02:09:11;1.67;;;1.58;;
61248;SDS011;47119;49.130;9.218;2022-07-24T02:11:38;1.52;;;1.42;;
61248;SDS011;47119;49.130;9.218;2022-07-24T02:14:07;3.67;;;2.63;;
61248;SDS011;47119;49.130;9.218;2022-07-24T02:16:34;1.73;;;1.63;;
61248;SDS011;47119;49.130;9.218;2022-07-24T02:19:01;1.52;;;1.42;;
61248;SDS011;47119;49.130;9.218;2022-07-24T02:21:28;2.50;;;2.00;;
61248;SDS011;47119;49.130;9.218;2022-07-24T02:23:59;2.05;;;1.90;;
61248;SDS011;47119;49.130;9.218;2022-07-24T02:26:27;1.60;;;1.52;;
61248;SDS011;47119;49.130;9.218;2022-07-24T02:28:54;1.20;;;1.20;;
61248;SDS011;47119;49.130;9.218;2022-07-24T02:31:43;1.48;;;1.38;;
61248;SDS011;47119;49.130;9.218;2022-07-24T02:34:28;1.70;;;1.60;;
61248;SDS011;47119;49.130;9.218;2022-07-24T02:36:55;2.33;;;2.13;;
61248;SDS011;47119;49.130;9.218;2022-07-24T02:39:24;2.38;;;1.40;;
61248;SDS011;47119;49.130;9.218;2022-07-24T02:41:52;2.53;;;1.30;;
61248;SDS011;47119;49.130;9.218;2022-07-24T02:44:22;1.30;;;1.30;;
61248;SDS011;47119;49.130;9.218;2022-07-24T02:46:52;1.33;;;1.33;;
61248;SDS011;47119;49.130;9.218;2022-07-24T02:49:22;2.17;;;2.08;;
61248;SDS011;47119;49.130;9.218;2022-07-24T02:51:49;2.88;;;1.63;;
61248;SDS011;47119;49.130;9.218;2022-07-24T02:54:16;2.20;;;2.05;;
61248;SDS011;47119;49.130;9.218;2022-07-24T02:56:43;1.23;;;1.23;;
61248;SDS011;47119;49.130;9.218;2022-07-24T02:59:10;1.70;;;1.60;;
61248;SDS011;47119;49.130;9.218;2022-07-24T03:01:37;1.75;;;1.65;;
61248;SDS011;47119;49.130;9.218;2022-07-24T03:04:08;1.10;;;1.10;;
61248;SDS011;47119;49.130;9.218;2022-07-24T03:06:35;1.23;;;1.23;;
61248;SDS011;47119;49.130;9.218;2022-07-24T03:09:03;1.55;;;1.55;;
61248;SDS011;47119;49.130;9.218;2022-07-24T03:11:32;2.60;;;1.90;;
61248;SDS011;47119;49.130;9.218;2022-07-24T03:14:00;1.70;;;1.60;;
61248;SDS011;47119;49.130;9.218;2022-07-24T03:16:27;2.50;;;2.33;;
61248;SDS011;47119;49.130;9.218;2022-07-24T03:18:56;2.80;;;2.28;;
61248;SDS011;47119;49.130;9.218;2022-07-24T03:21:26;1.45;;;1.35;;
61248;SDS011;47119;49.130;9.218;2022-07-24T03:23:53;1.10;;;1.10;;
61248;SDS011;47119;49.130;9.218;2022-07-24T03:26:20;1.52;;;1.42;;
61248;SDS011;47119;49.130;9.218;2022-07-24T03:28:47;2.25;;;2.05;;
61248;SDS011;47119;49.130;9.218;2022-07-24T03:31:14;1.50;;;1.40;;
61248;SDS011;47119;49.130;9.218;2022-07-24T03:33:41;4.22;;;1.55;;
61248;SDS011;47119;49.130;9.218;2022-07-24T03:36:08;2.92;;;1.27;;
61248;SDS011;47119;49.130;9.218;2022-07-24T03:38:39;3.22;;;1.50;;
61248;SDS011;47119;49.130;9.218;2022-07-24T03:41:06;1.30;;;1.30;;
61248;SDS011;47119;49.130;9.218;2022-07-24T03:43:33;2.22;;;2.13;;
61248;SDS011;47119;49.130;9.218;2022-07-24T03:46:00;4.13;;;1.88;;
61248;SDS011;47119;49.130;9.218;2022-07-24T03:48:27;1.98;;;1.88;;
61248;SDS011;47119;49.130;9.218;2022-07-24T03:50:54;5.75;;;2.13;;
61248;SDS011;47119;49.130;9.218;2022-07-24T03:53:22;5.82;;;1.30;;
61248;SDS011;47119;49.130;9.218;2022-07-24T03:55:50;4.30;;;1.88;;
61248;SDS011;47119;49.130;9.218;2022-07-24T03:58:17;1.88;;;1.77;;
61248;SDS011;47119;49.130;9.218;2022-07-24T04:00:44;2.63;;;2.05;;
61248;SDS011;47119;49.130;9.218;2022-07-24T04:03:12;1.70;;;1.63;;
61248;SDS011;47119;49.130;9.218;2022-07-24T04:05:41;1.42;;;1.35;;
61248;SDS011;47119;49.130;9.218;2022-07-24T04:08:10;1.80;;;1.70;;
61248;SDS011;47119;49.130;9.218;2022-07-24T04:10:39;2.38;;;2.17;;
61248;SDS011;47119;49.130;9.218;2022-07-24T04:13:10;1.92;;;1.83;;
61248;SDS011;47119;49.130;9.218;2022-07-24T04:15:37;2.30;;;2.20;;
61248;SDS011;47119;49.130;9.218;2022-07-24T04:18:06;3.30;;;3.00;;
61248;SDS011;47119;49.130;9.218;2022-07-24T04:20:33;2.05;;;1.95;;
61248;SDS011;47119;49.130;9.218;2022-07-24T04:23:00;1.67;;;1.58;;
61248;SDS011;47119;49.130;9.218;2022-07-24T04:25:28;1.95;;;1.88;;
61248;SDS011;47119;49.130;9.218;2022-07-24T04:27:55;1.98;;;1.88;;
61248;SDS011;47119;49.130;9.218;2022-07-24T04:30:23;1.35;;;1.35;;
61248;SDS011;47119;49.130;9.218;2022-07-24T04:32:50;1.77;;;1.77;;
61248;SDS011;47119;49.130;9.218;2022-07-24T04:35:17;1.88;;;1.77;;
61248;SDS011;47119;49.130;9.218;2022-07-24T04:37:50;2.03;;;1.92;;
61248;SDS011;47119;49.130;9.218;2022-07-24T04:40:20;1.95;;;1.85;;
61248;SDS011;47119;49.130;9.218;2022-07-24T04:42:49;1.85;;;1.75;;
61248;SDS011;47119;49.130;9.218;2022-07-24T04:45:16;2.53;;;2.13;;
61248;SDS011;47119;49.130;9.218;2022-07-24T04:47:45;2.40;;;2.20;;
61248;SDS011;47119;49.130;9.218;2022-07-24T04:50:15;1.77;;;1.67;;
61248;SDS011;47119;49.130;9.218;2022-07-24T04:52:44;2.25;;;1.70;;
61248;SDS011;47119;49.130;9.218;2022-07-24T04:55:11;1.48;;;1.42;;
61248;SDS011;47119;49.130;9.218;2022-07-24T04:57:41;1.92;;;1.67;;
61248;SDS011;47119;49.130;9.218;2022-07-24T05:00:10;2.03;;;1.92;;
61248;SDS011;47119;49.130;9.218;2022-07-24T05:02:46;1.38;;;1.38;;
61248;SDS011;47119;49.130;9.218;2022-07-24T05:05:13;1.33;;;1.33;;
61248;SDS011;47119;49.130;9.218;2022-07-24T05:07:40;1.40;;;1.30;;
61248;SDS011;47119;49.130;9.218;2022-07-24T05:10:08;1.35;;;1.25;;
61248;SDS011;47119;49.130;9.218;2022-07-24T05:12:37;1.65;;;1.55;;
61248;SDS011;47119;49.130;9.218;2022-07-24T05:15:08;1.30;;;1.25;;
61248;SDS011;47119;49.130;9.218;2022-07-24T05:17:41;3.80;;;2.10;;
61248;SDS011;47119;49.130;9.218;2022-07-24T05:20:11;1.35;;;1.33;;
61248;SDS011;47119;49.130;9.218;2022-07-24T05:22:43;1.35;;;1.35;;
61248;SDS011;47119;49.130;9.218;2022-07-24T05:25:11;1.60;;;1.50;;
61248;SDS011;47119;49.130;9.218;2022-07-24T05:27:41;0.88;;;0.88;;
61248;SDS011;47119;49.130;9.218;2022-07-24T05:30:08;1.65;;;1.55;;
61248;SDS011;47119;49.130;9.218;2022-07-24T05:32:37;1.55;;;1.45;;
61248;SDS011;47119;49.130;9.218;2022-07-24T05:35:04;0.90;;;0.90;;
61248;SDS011;47119;49.130;9.218;2022-07-24T05:37:34;1.33;;;1.23;;
61248;SDS011;47119;49.130;9.218;2022-07-24T05:40:03;1.85;;;1.75;;
61248;SDS011;47119;49.130;9.218;2022-07-24T05:42:32;1.52;;;1.52;;
61248;SDS011;47119;49.130;9.218;2022-07-24T05:45:03;1.38;;;1.38;;
61248;SDS011;47119;49.130;9.218;2022-07-24T05:47:34;1.70;;;1.60;;
61248;SDS011;47119;49.130;9.218;2022-07-24T05:50:05;1.98;;;1.67;;
61248;SDS011;47119;49.130;9.218;2022-07-24T05:52:35;2.10;;;2.00;;
61248;SDS011;47119;49.130;9.218;2022-07-24T05:55:03;1.67;;;1.58;;
61248;SDS011;47119;49.130;9.218;2022-07-24T05:57:34;2.17;;;1.95;;
61248;SDS011;47119;49.130;9.218;2022-07-24T06:00:01;2.53;;;1.50;;
61248;SDS011;47119;49.130;9.218;2022-07-24T06:02:40;0.80;;;0.80;;
61248;SDS011;47119;49.130;9.218;2022-07-24T06:05:07;2.70;;;2.42;;
61248;SDS011;47119;49.130;9.218;2022-07-24T06:07:36;1.67;;;1.67;;
61248;SDS011;47119;49.130;9.218;2022-07-24T06:10:03;2.00;;;1.80;;
61248;SDS011;47119;49.130;9.218;2022-07-24T06:12:32;1.25;;;1.15;;
61248;SDS011;47119;49.130;9.218;2022-07-24T06:14:59;1.63;;;1.52;;
61248;SDS011;47119;49.130;9.218;2022-07-24T06:17:29;2.22;;;2.13;;
61248;SDS011;47119;49.130;9.218;2022-07-24T06:19:56;1.60;;;1.50;;
61248;SDS011;47119;49.130;9.218;2022-07-24T06:22:23;1.48;;;1.42;;
61248;SDS011;47119;49.130;9.218;2022-07-24T06:24:55;1.17;;;1.17;;
61248;SDS011;47119;49.130;9.218;2022-07-24T06:27:22;2.58;;;2.17;;
61248;SDS011;47119;49.130;9.218;2022-07-24T06:29:49;1.55;;;1.45;;
61248;SDS011;47119;49.130;9.218;2022-07-24T06:32:16;0.82;;;0.82;;
61248;SDS011;47119;49.130;9.218;2022-07-24T06:34:46;1.60;;;1.00;;
61248;SDS011;47119;49.130;9.218;2022-07-24T06:37:15;1.35;;;1.30;;
61248;SDS011;47119;49.130;9.218;2022-07-24T06:39:42;3.65;;;1.70;;
61248;SDS011;47119;49.130;9.218;2022-07-24T06:42:10;0.60;;;0.60;;
61248;SDS011;47119;49.130;9.218;2022-07-24T06:44:41;1.52;;;1.52;;
61248;SDS011;47119;49.130;9.218;2022-07-24T06:47:08;1.52;;;1.42;;
61248;SDS011;47119;49.130;9.218;2022-07-24T06:49:37;0.95;;;0.95;;
61248;SDS011;47119;49.130;9.218;2022-07-24T06:52:04;3.05;;;1.58;;
61248;SDS011;47119;49.130;9.218;2022-07-24T06:54:32;1.45;;;1.25;;
61248;SDS011;47119;49.130;9.218;2022-07-24T06:56:59;1.70;;;1.38;;
61248;SDS011;47119;49.130;9.218;2022-07-24T06:59:27;5.25;;;1.35;;
61248;SDS011;47119;49.130;9.218;2022-07-24T07:01:56;2.22;;;2.13;;
61248;SDS011;47119;49.130;9.218;2022-07-24T07:07:36;0.77;;;0.75;;
61248;SDS011;47119;49.130;9.218;2022-07-24T07:10:06;0.80;;;0.80;;
61248;SDS011;47119;49.130;9.218;2022-07-24T07:21:29;1.85;;;0.70;;
61248;SDS011;47119;49.130;9.218;2022-07-24T07:24:05;3.80;;;1.23;;
61248;SDS011;47119;49.130;9.218;2022-07-24T07:27:41;0.60;;;0.60;;
61248;SDS011;47119;49.130;9.218;2022-07-24T07:30:15;1.73;;;1.33;;
61248;SDS011;47119;49.130;9.218;2022-07-24T07:35:15;0.75;;;0.75;;
61248;SDS011;47119;49.130;9.218;2022-07-24T07:37:53;1.02;;;1.02;;
61248;SDS011;47119;49.130;9.218;2022-07-24T07:44:28;0.50;;;0.50;;
61248;SDS011;47119;49.130;9.218;2022-07-24T07:47:22;1.30;;;1.25;;
61248;SDS011;47119;49.130;9.218;2022-07-24T07:53:17;0.70;;;0.70;;
61248;SDS011;47119;49.130;9.218;2022-07-24T07:56:06;1.83;;;0.90;;
61248;SDS011;47119;49.130;9.218;2022-07-24T07:59:29;1.10;;;1.05;;
61248;SDS011;47119;49.130;9.218;2022-07-24T08:02:58;1.17;;;1.17;;
61248;SDS011;47119;49.130;9.218;2022-07-24T08:05:48;1.30;;;1.30;;
61248;SDS011;47119;49.130;9.218;2022-07-24T08:08:52;1.40;;;1.40;;
61248;SDS011;47119;49.130;9.218;2022-07-24T08:11:52;1.10;;;1.10;;
61248;SDS011;47119;49.130;9.218;2022-07-24T08:14:32;1.55;;;1.50;;
61248;SDS011;47119;49.130;9.218;2022-07-24T08:17:26;1.33;;;1.25;;
61248;SDS011;47119;49.130;9.218;2022-07-24T08:20:37;0.57;;;0.57;;
61248;SDS011;47119;49.130;9.218;2022-07-24T08:23:11;0.20;;;0.20;;
61248;SDS011;47119;49.130;9.218;2022-07-24T08:25:53;1.48;;;1.45;;
61248;SDS011;47119;49.130;9.218;2022-07-24T08:36:37;2.13;;;1.05;;
61248;SDS011;47119;49.130;9.218;2022-07-24T08:39:53;2.47;;;1.38;;
61248;SDS011;47119;49.130;9.218;2022-07-24T08:42:51;0.68;;;0.68;;
61248;SDS011;47119;49.130;9.218;2022-07-24T08:46:14;2.03;;;1.58;;
61248;SDS011;47119;49.130;9.218;2022-07-24T08:49:16;2.25;;;0.77;;
61248;SDS011;47119;49.130;9.218;2022-07-24T08:53:08;1.10;;;1.10;;
61248;SDS011;47119;49.130;9.218;2022-07-24T08:56:42;0.65;;;0.65;;
61248;SDS011;47119;49.130;9.218;2022-07-24T08:59:27;1.10;;;0.75;;
61248;SDS011;47119;49.130;9.218;2022-07-24T09:03:02;1.17;;;1.17;;
61248;SDS011;47119;49.130;9.218;2022-07-24T09:05:55;0.30;;;0.30;;
61248;SDS011;47119;49.130;9.218;2022-07-24T09:08:59;1.60;;;1.60;;
61248;SDS011;47119;49.130;9.218;2022-07-24T09:12:20;2.47;;;1.23;;
61248;SDS011;47119;49.130;9.218;2022-07-24T09:15:43;1.20;;;1.10;;
61248;SDS011;47119;49.130;9.218;2022-07-24T09:18:45;0.47;;;0.47;;
61248;SDS011;47119;49.130;9.218;2022-07-24T09:22:16;1.05;;;0.95;;
61248;SDS011;47119;49.130;9.218;2022-07-24T09:33:35;1.30;;;1.23;;
61248;SDS011;47119;49.130;9.218;2022-07-24T09:36:11;0.82;;;0.82;;
61248;SDS011;47119;49.130;9.218;2022-07-24T09:39:19;0.30;;;0.30;;
61248;SDS011;47119;49.130;9.218;2022-07-24T09:42:15;0.90;;;0.90;;
61248;SDS011;47119;49.130;9.218;2022-07-24T09:44:56;1.63;;;1.52;;
61248;SDS011;47119;49.130;9.218;2022-07-24T09:47:37;0.90;;;0.90;;
61248;SDS011;47119;49.130;9.218;2022-07-24T09:50:23;0.28;;;0.28;;
61248;SDS011;47119;49.130;9.218;2022-07-24T09:52:55;1.45;;;1.33;;
61248;SDS011;47119;49.130;9.218;2022-07-24T09:55:24;0.90;;;0.90;;
61248;SDS011;47119;49.130;9.218;2022-07-24T09:57:56;1.55;;;1.50;;
61248;SDS011;47119;49.130;9.218;2022-07-24T10:00:24;0.57;;;0.57;;
61248;SDS011;47119;49.130;9.218;2022-07-24T10:46:33;0.45;;;0.45;;
61248;SDS011;47119;49.130;9.218;2022-07-24T10:51:01;0.68;;;0.68;;
61248;SDS011;47119;49.130;9.218;2022-07-24T10:54:17;2.72;;;1.33;;
61248;SDS011;47119;49.130;9.218;2022-07-24T10:57:46;0.73;;;0.73;;
61248;SDS011;47119;49.130;9.218;2022-07-24T11:00:32;3.03;;;2.80;;
61248;SDS011;47119;49.130;9.218;2022-07-24T11:03:08;0.93;;;0.93;;
61248;SDS011;47119;49.130;9.218;2022-07-24T11:06:04;0.93;;;0.93;;
61248;SDS011;47119;49.130;9.218;2022-07-24T11:08:37;1.23;;;1.13;;
61248;SDS011;47119;49.130;9.218;2022-07-24T11:11:10;0.57;;;0.57;;
61248;SDS011;47119;49.130;9.218;2022-07-24T11:13:44;0.55;;;0.55;;
61248;SDS011;47119;49.130;9.218;2022-07-24T11:16:21;0.90;;;0.90;;
61248;SDS011;47119;49.130;9.218;2022-07-24T11:22:09;0.65;;;0.65;;
61248;SDS011;47119;49.130;9.218;2022-07-24T11:25:28;2.85;;;2.67;;
61248;SDS011;47119;49.130;9.218;2022-07-24T11:31:47;0.13;;;0.13;;
61248;SDS011;47119;49.130;9.218;2022-07-24T11:34:16;0.40;;;0.40;;
61248;SDS011;47119;49.130;9.218;2022-07-24T11:36:45;0.60;;;0.60;;
61248;SDS011;47119;49.130;9.218;2022-07-24T11:39:14;0.60;;;0.60;;
61248;SDS011;47119;49.130;9.218;2022-07-24T11:41:47;0.20;;;0.20;;
61248;SDS011;47119;49.130;9.218;2022-07-24T11:44:21;0.63;;;0.63;;
61248;SDS011;47119;49.130;9.218;2022-07-24T11:46:51;0.22;;;0.22;;
61248;SDS011;47119;49.130;9.218;2022-07-24T11:49:19;0.22;;;0.22;;
61248;SDS011;47119;49.130;9.218;2022-07-24T11:51:48;0.40;;;0.40;;
61248;SDS011;47119;49.130;9.218;2022-07-24T11:54:24;0.40;;;0.40;;
61248;SDS011;47119;49.130;9.218;2022-07-24T11:56:56;0.20;;;0.20;;
61248;SDS011;47119;49.130;9.218;2022-07-24T11:59:27;1.75;;;1.42;;
61248;SDS011;47119;49.130;9.218;2022-07-24T12:02:02;0.40;;;0.40;;
61248;SDS011;47119;49.130;9.218;2022-07-24T12:04:32;0.40;;;0.40;;
61248;SDS011;47119;49.130;9.218;2022-07-24T12:07:02;0.65;;;0.65;;
61248;SDS011;47119;49.130;9.218;2022-07-24T12:09:49;0.70;;;0.70;;
61248;SDS011;47119;49.130;9.218;2022-07-24T12:12:22;0.10;;;0.10;;
61248;SDS011;47119;49.130;9.218;2022-07-24T12:15:15;0.30;;;0.30;;
61248;SDS011;47119;49.130;9.218;2022-07-24T12:17:53;0.43;;;0.43;;
61248;SDS011;47119;49.130;9.218;2022-07-24T12:20:23;0.32;;;0.30;;
61248;SDS011;47119;49.130;9.218;2022-07-24T12:22:54;0.73;;;0.73;;
61248;SDS011;47119;49.130;9.218;2022-07-24T12:25:27;0.25;;;0.25;;
61248;SDS011;47119;49.130;9.218;2022-07-24T12:28:01;0.00;;;0.00;;
61248;SDS011;47119;49.130;9.218;2022-07-24T12:30:32;0.93;;;0.93;;
61248;SDS011;47119;49.130;9.218;2022-07-24T12:33:04;0.50;;;0.50;;
61248;SDS011;47119;49.130;9.218;2022-07-24T12:35:33;0.50;;;0.50;;
61248;SDS011;47119;49.130;9.218;2022-07-24T12:38:28;0.47;;;0.47;;
61248;SDS011;47119;49.130;9.218;2022-07-24T12:41:01;0.28;;;0.28;;
61248;SDS011;47119;49.130;9.218;2022-07-24T12:43:46;0.43;;;0.43;;
61248;SDS011;47119;49.130;9.218;2022-07-24T12:46:24;1.10;;;0.95;;
61248;SDS011;47119;49.130;9.218;2022-07-24T12:49:19;0.35;;;0.35;;
61248;SDS011;47119;49.130;9.218;2022-07-24T12:52:22;0.65;;;0.65;;
61248;SDS011;47119;49.130;9.218;2022-07-24T12:54:59;0.32;;;0.32;;
61248;SDS011;47119;49.130;9.218;2022-07-24T12:57:28;1.20;;;1.20;;
61248;SDS011;47119;49.130;9.218;2022-07-24T13:00:07;0.73;;;0.73;;
61248;SDS011;47119;49.130;9.218;2022-07-24T13:02:42;0.55;;;0.55;;
61248;SDS011;47119;49.130;9.218;2022-07-24T13:05:09;1.65;;;1.55;;
61248;SDS011;47119;49.130;9.218;2022-07-24T13:07:38;0.93;;;0.85;;
61248;SDS011;47119;49.130;9.218;2022-07-24T13:10:12;0.55;;;0.55;;
61248;SDS011;47119;49.130;9.218;2022-07-24T13:12:43;0.80;;;0.80;;
61248;SDS011;47119;49.130;9.218;2022-07-24T13:15:13;0.30;;;0.30;;
61248;SDS011;47119;49.130;9.218;2022-07-24T13:17:54;1.60;;;1.50;;
61248;SDS011;47119;49.130;9.218;2022-07-24T13:20:23;0.77;;;0.77;;
61248;SDS011;47119;49.130;9.218;2022-07-24T13:22:50;0.73;;;0.47;;
61248;SDS011;47119;49.130;9.218;2022-07-24T13:25:20;0.52;;;0.52;;
61248;SDS011;47119;49.130;9.218;2022-07-24T13:27:47;0.10;;;0.10;;
61248;SDS011;47119;49.130;9.218;2022-07-24T13:30:14;0.65;;;0.65;;
61248;SDS011;47119;49.130;9.218;2022-07-24T13:32:46;0.20;;;0.20;;
61248;SDS011;47119;49.130;9.218;2022-07-24T13:37:14;0.70;;;0.70;;
61248;SDS011;47119;49.130;9.218;2022-07-24T13:39:57;1.92;;;1.83;;
61248;SDS011;47119;49.130;9.218;2022-07-24T13:43:00;2.40;;;0.43;;
61248;SDS011;47119;49.130;9.218;2022-07-24T13:56:05;0.90;;;0.90;;
61248;SDS011;47119;49.130;9.218;2022-07-24T13:58:42;0.95;;;0.93;;
61248;SDS011;47119;49.130;9.218;2022-07-24T14:01:12;1.47;;;1.37;;
61248;SDS011;47119;49.130;9.218;2022-07-24T14:03:41;0.57;;;0.57;;
61248;SDS011;47119;49.130;9.218;2022-07-24T14:06:18;0.73;;;0.73;;
61248;SDS011;47119;49.130;9.218;2022-07-24T14:14:43;0.20;;;0.20;;
61248;SDS011;47119;49.130;9.218;2022-07-24T14:18:44;0.00;;;0.00;;
61248;SDS011;47119;49.130;9.218;2022-07-24T14:21:15;0.28;;;0.28;;
61248;SDS011;47119;49.130;9.218;2022-07-24T14:23:49;0.57;;;0.57;;
61248;SDS011;47119;49.130;9.218;2022-07-24T14:26:34;0.70;;;0.70;;
61248;SDS011;47119;49.130;9.218;2022-07-24T14:29:25;0.57;;;0.57;;
61248;SDS011;47119;49.130;9.218;2022-07-24T14:32:29;0.30;;;0.30;;
61248;SDS011;47119;49.130;9.218;2022-07-24T14:35:14;0.28;;;0.28;;
61248;SDS011;47119;49.130;9.218;2022-07-24T14:37:41;0.25;;;0.25;;
61248;SDS011;47119;49.130;9.218;2022-07-24T14:40:10;0.73;;;0.73;;
61248;SDS011;47119;49.130;9.218;2022-07-24T14:42:38;0.68;;;0.68;;
61248;SDS011;47119;49.130;9.218;2022-07-24T14:45:10;0.32;;;0.32;;
61248;SDS011;47119;49.130;9.218;2022-07-24T14:47:40;0.15;;;0.15;;
61248;SDS011;47119;49.130;9.218;2022-07-24T14:50:10;0.52;;;0.52;;
61248;SDS011;47119;49.130;9.218;2022-07-24T14:52:37;1.17;;;0.98;;
61248;SDS011;47119;49.130;9.218;2022-07-24T14:55:06;0.22;;;0.22;;
61248;SDS011;47119;49.130;9.218;2022-07-24T14:57:36;0.60;;;0.60;;
61248;SDS011;47119;49.130;9.218;2022-07-24T15:00:04;1.55;;;1.52;;
61248;SDS011;47119;49.130;9.218;2022-07-24T15:02:33;0.85;;;0.85;;
61248;SDS011;47119;49.130;9.218;2022-07-24T15:05:04;0.38;;;0.38;;
61248;SDS011;47119;49.130;9.218;2022-07-24T15:07:32;0.30;;;0.30;;
61248;SDS011;47119;49.130;9.218;2022-07-24T15:09:59;0.10;;;0.10;;
61248;SDS011;47119;49.130;9.218;2022-07-24T15:12:29;0.10;;;0.10;;
61248;SDS011;47119;49.130;9.218;2022-07-24T15:15:00;0.60;;;0.60;;
61248;SDS011;47119;49.130;9.218;2022-07-24T15:17:28;0.35;;;0.35;;
61248;SDS011;47119;49.130;9.218;2022-07-24T15:19:58;1.55;;;0.90;;
61248;SDS011;47119;49.130;9.218;2022-07-24T15:22:26;0.55;;;0.50;;
61248;SDS011;47119;49.130;9.218;2022-07-24T15:24:54;0.90;;;0.90;;
61248;SDS011;47119;49.130;9.218;2022-07-24T15:27:33;0.93;;;0.93;;
61248;SDS011;47119;49.130;9.218;2022-07-24T15:30:36;0.28;;;0.28;;
61248;SDS011;47119;49.130;9.218;2022-07-24T15:33:06;0.93;;;0.93;;
61248;SDS011;47119;49.130;9.218;2022-07-24T15:35:36;1.17;;;1.00;;
61248;SDS011;47119;49.130;9.218;2022-07-24T15:38:07;0.95;;;0.90;;
61248;SDS011;47119;49.130;9.218;2022-07-24T15:40:45;0.63;;;0.63;;
61248;SDS011;47119;49.130;9.218;2022-07-24T15:43:25;0.52;;;0.52;;
61248;SDS011;47119;49.130;9.218;2022-07-24T15:45:57;0.20;;;0.20;;
61248;SDS011;47119;49.130;9.218;2022-07-24T15:48:25;0.30;;;0.30;;
61248;SDS011;47119;49.130;9.218;2022-07-24T15:50:53;0.52;;;0.43;;
61248;SDS011;47119;49.130;9.218;2022-07-24T15:53:22;0.17;;;0.17;;
61248;SDS011;47119;49.130;9.218;2022-07-24T15:55:49;0.68;;;0.63;;
61248;SDS011;47119;49.130;9.218;2022-07-24T15:58:16;2.28;;;1.00;;
61248;SDS011;47119;49.130;9.218;2022-07-24T16:00:46;0.90;;;0.85;;
61248;SDS011;47119;49.130;9.218;2022-07-24T16:03:21;0.30;;;0.30;;
61248;SDS011;47119;49.130;9.218;2022-07-24T16:05:51;0.43;;;0.43;;
61248;SDS011;47119;49.130;9.218;2022-07-24T16:08:18;0.80;;;0.80;;
61248;SDS011;47119;49.130;9.218;2022-07-24T16:10:47;0.80;;;0.60;;
61248;SDS011;47119;49.130;9.218;2022-07-24T16:13:16;0.45;;;0.45;;
61248;SDS011;47119;49.130;9.218;2022-07-24T16:15:43;0.10;;;0.10;;
61248;SDS011;47119;49.130;9.218;2022-07-24T16:18:13;0.32;;;0.32;;
61248;SDS011;47119;49.130;9.218;2022-07-24T16:20:40;0.40;;;0.40;;
61248;SDS011;47119;49.130;9.218;2022-07-24T16:23:07;0.20;;;0.20;;
61248;SDS011;47119;49.130;9.218;2022-07-24T16:25:39;0.20;;;0.20;;
61248;SDS011;47119;49.130;9.218;2022-07-24T16:28:07;0.80;;;0.80;;
61248;SDS011;47119;49.130;9.218;2022-07-24T16:30:35;0.32;;;0.32;;
61248;SDS011;47119;49.130;9.218;2022-07-24T16:33:05;0.22;;;0.22;;
61248;SDS011;47119;49.130;9.218;2022-07-24T16:35:53;0.73;;;0.73;;
61248;SDS011;47119;49.130;9.218;2022-07-24T16:38:30;0.15;;;0.15;;
61248;SDS011;47119;49.130;9.218;2022-07-24T16:41:02;0.50;;;0.50;;
61248;SDS011;47119;49.130;9.218;2022-07-24T16:43:39;0.68;;;0.68;;
61248;SDS011;47119;49.130;9.218;2022-07-24T16:46:33;0.50;;;0.50;;
61248;SDS011;47119;49.130;9.218;2022-07-24T16:49:32;0.15;;;0.15;;
61248;SDS011;47119;49.130;9.218;2022-07-24T16:52:06;0.80;;;0.55;;
61248;SDS011;47119;49.130;9.218;2022-07-24T16:55:04;0.40;;;0.40;;
61248;SDS011;47119;49.130;9.218;2022-07-24T16:58:15;0.60;;;0.60;;
61248;SDS011;47119;49.130;9.218;2022-07-24T17:01:03;0.03;;;0.03;;
61248;SDS011;47119;49.130;9.218;2022-07-24T17:04:02;0.30;;;0.30;;
61248;SDS011;47119;49.130;9.218;2022-07-24T18:09:49;0.60;;;0.60;;
61248;SDS011;47119;49.130;9.218;2022-07-24T18:12:45;0.75;;;0.65;;
61248;SDS011;47119;49.130;9.218;2022-07-24T18:15:32;0.70;;;0.57;;
61248;SDS011;47119;49.130;9.218;2022-07-24T18:18:04;0.30;;;0.30;;
61248;SDS011;47119;49.130;9.218;2022-07-24T18:21:03;0.08;;;0.08;;
61248;SDS011;47119;49.130;9.218;2022-07-24T18:23:46;0.35;;;0.35;;
61248;SDS011;47119;49.130;9.218;2022-07-24T18:26:34;0.70;;;0.70;;
61248;SDS011;47119;49.130;9.218;2022-07-24T18:29:02;0.50;;;0.50;;
61248;SDS011;47119;49.130;9.218;2022-07-24T18:31:30;0.40;;;0.40;;